sensor_id;sensor_type;location;lat;lon;timestamp;temperature;humidity
71177;DHT22;58877;51.992;4.504;2023-12-22T00:01:32;9.15;72.69
71177;DHT22;58877;51.992;4.504;2023-12-22T00:03:59;9.30;70.21
71177;DHT22;58877;51.992;4.504;2023-12-22T00:06:26;9.38;69.29
71177;DHT22;58877;51.992;4.504;2023-12-22T00:08:52;9.45;69.09
71177;DHT22;58877;51.992;4.504;2023-12-22T00:11:17;9.44;68.91
71177;DHT22;58877;51.992;4.504;2023-12-22T00:13:43;9.36;69.28
71177;DHT22;58877;51.992;4.504;2023-12-22T00:16:09;9.45;69.10
71177;DHT22;58877;51.992;4.504;2023-12-22T00:18:38;9.38;69.21
71177;DHT22;58877;51.992;4.504;2023-12-22T00:21:04;9.46;68.91
71177;DHT22;58877;51.992;4.504;2023-12-22T00:23:30;9.52;69.13
71177;DHT22;58877;51.992;4.504;2023-12-22T00:26:00;9.55;68.50
71177;DHT22;58877;51.992;4.504;2023-12-22T00:28:32;9.58;68.42
71177;DHT22;58877;51.992;4.504;2023-12-22T00:30:58;9.69;68.78
71177;DHT22;58877;51.992;4.504;2023-12-22T00:33:24;9.62;68.29
71177;DHT22;58877;51.992;4.504;2023-12-22T00:35:51;9.59;66.15
71177;DHT22;58877;51.992;4.504;2023-12-22T00:38:22;9.59;65.31
71177;DHT22;58877;51.992;4.504;2023-12-22T00:40:48;9.63;64.27
71177;DHT22;58877;51.992;4.504;2023-12-22T00:43:24;9.58;63.73
71177;DHT22;58877;51.992;4.504;2023-12-22T00:45:50;9.61;63.34
71177;DHT22;58877;51.992;4.504;2023-12-22T00:48:15;9.58;63.81
71177;DHT22;58877;51.992;4.504;2023-12-22T00:50:44;9.49;63.83
71177;DHT22;58877;51.992;4.504;2023-12-22T00:53:12;9.55;63.76
71177;DHT22;58877;51.992;4.504;2023-12-22T00:55:41;9.54;64.24
71177;DHT22;58877;51.992;4.504;2023-12-22T00:58:06;9.58;64.87
71177;DHT22;58877;51.992;4.504;2023-12-22T01:00:34;9.59;65.08
71177;DHT22;58877;51.992;4.504;2023-12-22T01:03:00;9.56;64.52
71177;DHT22;58877;51.992;4.504;2023-12-22T01:05:28;9.62;64.29
71177;DHT22;58877;51.992;4.504;2023-12-22T01:07:54;9.56;62.99
71177;DHT22;58877;51.992;4.504;2023-12-22T01:10:19;9.63;63.02
71177;DHT22;58877;51.992;4.504;2023-12-22T01:12:50;9.58;62.53
71177;DHT22;58877;51.992;4.504;2023-12-22T01:15:16;9.65;62.50
71177;DHT22;58877;51.992;4.504;2023-12-22T01:17:41;9.59;62.82
71177;DHT22;58877;51.992;4.504;2023-12-22T01:20:13;9.58;62.32
71177;DHT22;58877;51.992;4.504;2023-12-22T01:22:42;9.69;62.41
71177;DHT22;58877;51.992;4.504;2023-12-22T01:25:10;9.63;62.42
71177;DHT22;58877;51.992;4.504;2023-12-22T01:27:41;9.69;63.11
71177;DHT22;58877;51.992;4.504;2023-12-22T01:30:10;9.65;63.87
71177;DHT22;58877;51.992;4.504;2023-12-22T01:32:35;9.69;65.18
71177;DHT22;58877;51.992;4.504;2023-12-22T01:35:04;9.65;65.26
71177;DHT22;58877;51.992;4.504;2023-12-22T01:37:37;9.56;62.45
71177;DHT22;58877;51.992;4.504;2023-12-22T01:40:11;9.61;62.25
71177;DHT22;58877;51.992;4.504;2023-12-22T01:42:40;9.63;62.34
71177;DHT22;58877;51.992;4.504;2023-12-22T01:45:06;9.62;63.04
71177;DHT22;58877;51.992;4.504;2023-12-22T01:47:36;9.58;63.53
71177;DHT22;58877;51.992;4.504;2023-12-22T01:50:05;9.58;64.06
71177;DHT22;58877;51.992;4.504;2023-12-22T01:52:31;9.63;64.82
71177;DHT22;58877;51.992;4.504;2023-12-22T01:54:59;9.66;65.18
71177;DHT22;58877;51.992;4.504;2023-12-22T01:57:26;9.72;65.70
71177;DHT22;58877;51.992;4.504;2023-12-22T01:59:54;9.71;66.19
71177;DHT22;58877;51.992;4.504;2023-12-22T02:02:23;9.75;67.36
71177;DHT22;58877;51.992;4.504;2023-12-22T02:04:54;9.74;67.62
71177;DHT22;58877;51.992;4.504;2023-12-22T02:07:23;9.78;66.96
71177;DHT22;58877;51.992;4.504;2023-12-22T02:09:51;9.79;66.97
71177;DHT22;58877;51.992;4.504;2023-12-22T02:12:20;9.72;67.26
71177;DHT22;58877;51.992;4.504;2023-12-22T02:14:46;9.76;67.73
71177;DHT22;58877;51.992;4.504;2023-12-22T02:17:20;9.78;67.80
71177;DHT22;58877;51.992;4.504;2023-12-22T02:19:50;9.76;67.75
71177;DHT22;58877;51.992;4.504;2023-12-22T02:22:19;9.79;67.97
71177;DHT22;58877;51.992;4.504;2023-12-22T02:24:45;9.75;67.88
71177;DHT22;58877;51.992;4.504;2023-12-22T02:30:14;9.75;67.88
71177;DHT22;58877;51.992;4.504;2023-12-22T02:32:43;9.82;68.04
71177;DHT22;58877;51.992;4.504;2023-12-22T02:35:21;9.83;68.09
71177;DHT22;58877;51.992;4.504;2023-12-22T02:37:50;9.83;68.66
71177;DHT22;58877;51.992;4.504;2023-12-22T02:40:20;9.86;68.67
71177;DHT22;58877;51.992;4.504;2023-12-22T02:42:47;9.85;68.12
71177;DHT22;58877;51.992;4.504;2023-12-22T02:45:15;9.89;68.05
71177;DHT22;58877;51.992;4.504;2023-12-22T02:47:45;9.82;68.32
71177;DHT22;58877;51.992;4.504;2023-12-22T02:50:20;9.86;68.56
71177;DHT22;58877;51.992;4.504;2023-12-22T02:52:46;9.83;68.75
71177;DHT22;58877;51.992;4.504;2023-12-22T02:55:14;9.75;68.63
71177;DHT22;58877;51.992;4.504;2023-12-22T02:57:43;9.79;68.06
71177;DHT22;58877;51.992;4.504;2023-12-22T03:00:12;9.81;66.75
71177;DHT22;58877;51.992;4.504;2023-12-22T03:02:37;9.85;67.22
71177;DHT22;58877;51.992;4.504;2023-12-22T03:05:37;9.90;67.81
71177;DHT22;58877;51.992;4.504;2023-12-22T03:07:56;9.85;67.94
71177;DHT22;58877;51.992;4.504;2023-12-22T03:10:21;9.87;67.09
71177;DHT22;58877;51.992;4.504;2023-12-22T03:12:47;9.83;66.66
71177;DHT22;58877;51.992;4.504;2023-12-22T03:15:13;9.85;66.03
71177;DHT22;58877;51.992;4.504;2023-12-22T03:17:39;9.89;65.53
71177;DHT22;58877;51.992;4.504;2023-12-22T03:20:04;9.87;64.87
71177;DHT22;58877;51.992;4.504;2023-12-22T03:22:30;9.86;64.18
71177;DHT22;58877;51.992;4.504;2023-12-22T03:24:56;9.86;62.91
71177;DHT22;58877;51.992;4.504;2023-12-22T03:27:21;9.89;63.12
71177;DHT22;58877;51.992;4.504;2023-12-22T03:29:47;9.82;62.10
71177;DHT22;58877;51.992;4.504;2023-12-22T03:32:12;9.79;61.80
71177;DHT22;58877;51.992;4.504;2023-12-22T03:34:38;9.85;61.64
71177;DHT22;58877;51.992;4.504;2023-12-22T03:37:04;9.81;61.53
71177;DHT22;58877;51.992;4.504;2023-12-22T03:39:29;9.86;62.24
71177;DHT22;58877;51.992;4.504;2023-12-22T03:41:55;9.85;62.93
71177;DHT22;58877;51.992;4.504;2023-12-22T03:44:20;9.92;63.57
71177;DHT22;58877;51.992;4.504;2023-12-22T03:46:46;9.92;63.76
71177;DHT22;58877;51.992;4.504;2023-12-22T03:49:12;9.99;64.07
71177;DHT22;58877;51.992;4.504;2023-12-22T03:51:37;10.02;64.04
71177;DHT22;58877;51.992;4.504;2023-12-22T03:54:03;10.03;64.80
71177;DHT22;58877;51.992;4.504;2023-12-22T03:56:29;10.00;65.33
71177;DHT22;58877;51.992;4.504;2023-12-22T03:58:55;10.06;65.77
71177;DHT22;58877;51.992;4.504;2023-12-22T04:01:21;9.99;66.08
71177;DHT22;58877;51.992;4.504;2023-12-22T04:03:46;10.05;66.57
71177;DHT22;58877;51.992;4.504;2023-12-22T04:06:12;10.03;67.04
71177;DHT22;58877;51.992;4.504;2023-12-22T04:08:37;10.07;67.39
71177;DHT22;58877;51.992;4.504;2023-12-22T04:11:03;9.99;68.15
71177;DHT22;58877;51.992;4.504;2023-12-22T04:13:28;10.10;68.04
71177;DHT22;58877;51.992;4.504;2023-12-22T04:15:54;10.06;67.38
71177;DHT22;58877;51.992;4.504;2023-12-22T04:18:19;10.10;66.91
71177;DHT22;58877;51.992;4.504;2023-12-22T04:20:45;10.03;67.41
71177;DHT22;58877;51.992;4.504;2023-12-22T04:23:11;10.07;67.29
71177;DHT22;58877;51.992;4.504;2023-12-22T04:25:36;10.12;68.17
71177;DHT22;58877;51.992;4.504;2023-12-22T04:28:02;10.10;69.02
71177;DHT22;58877;51.992;4.504;2023-12-22T04:30:28;10.10;70.07
71177;DHT22;58877;51.992;4.504;2023-12-22T04:32:53;10.05;72.04
71177;DHT22;58877;51.992;4.504;2023-12-22T04:35:19;10.07;72.59
71177;DHT22;58877;51.992;4.504;2023-12-22T04:37:44;10.12;73.84
71177;DHT22;58877;51.992;4.504;2023-12-22T04:40:10;10.16;74.34
71177;DHT22;58877;51.992;4.504;2023-12-22T04:42:36;10.09;74.95
71177;DHT22;58877;51.992;4.504;2023-12-22T04:45:02;10.13;74.84
71177;DHT22;58877;51.992;4.504;2023-12-22T04:47:27;10.16;74.97
71177;DHT22;58877;51.992;4.504;2023-12-22T04:49:53;10.23;74.93
71177;DHT22;58877;51.992;4.504;2023-12-22T04:52:18;10.13;74.98
71177;DHT22;58877;51.992;4.504;2023-12-22T04:54:44;10.05;74.74
71177;DHT22;58877;51.992;4.504;2023-12-22T04:57:10;10.12;74.32
71177;DHT22;58877;51.992;4.504;2023-12-22T04:59:36;10.13;74.20
71177;DHT22;58877;51.992;4.504;2023-12-22T05:02:01;10.16;74.16
71177;DHT22;58877;51.992;4.504;2023-12-22T05:04:27;10.17;74.01
71177;DHT22;58877;51.992;4.504;2023-12-22T05:06:53;10.09;74.01
71177;DHT22;58877;51.992;4.504;2023-12-22T05:09:22;10.13;73.93
71177;DHT22;58877;51.992;4.504;2023-12-22T05:11:53;10.19;73.90
71177;DHT22;58877;51.992;4.504;2023-12-22T05:14:22;10.12;74.46
71177;DHT22;58877;51.992;4.504;2023-12-22T05:16:48;10.06;74.40
71177;DHT22;58877;51.992;4.504;2023-12-22T05:19:13;10.07;74.10
71177;DHT22;58877;51.992;4.504;2023-12-22T05:21:39;10.12;74.02
71177;DHT22;58877;51.992;4.504;2023-12-22T05:24:04;10.19;74.04
71177;DHT22;58877;51.992;4.504;2023-12-22T05:26:30;10.21;75.21
71177;DHT22;58877;51.992;4.504;2023-12-22T05:28:57;10.07;76.51
71177;DHT22;58877;51.992;4.504;2023-12-22T05:31:22;10.10;77.20
71177;DHT22;58877;51.992;4.504;2023-12-22T05:33:48;10.00;77.38
71177;DHT22;58877;51.992;4.504;2023-12-22T05:36:16;10.07;76.77
71177;DHT22;58877;51.992;4.504;2023-12-22T05:38:45;10.00;76.71
71177;DHT22;58877;51.992;4.504;2023-12-22T05:41:13;9.99;76.44
71177;DHT22;58877;51.992;4.504;2023-12-22T05:43:38;10.10;76.68
71177;DHT22;58877;51.992;4.504;2023-12-22T05:46:04;10.07;76.59
71177;DHT22;58877;51.992;4.504;2023-12-22T05:48:29;10.16;76.78
71177;DHT22;58877;51.992;4.504;2023-12-22T05:50:58;10.12;77.12
71177;DHT22;58877;51.992;4.504;2023-12-22T05:53:24;10.13;77.32
71177;DHT22;58877;51.992;4.504;2023-12-22T05:55:49;10.13;77.25
71177;DHT22;58877;51.992;4.504;2023-12-22T05:58:15;10.17;77.30
71177;DHT22;58877;51.992;4.504;2023-12-22T06:00:40;10.12;77.20
71177;DHT22;58877;51.992;4.504;2023-12-22T06:03:06;10.13;77.16
71177;DHT22;58877;51.992;4.504;2023-12-22T06:05:32;10.17;76.48
71177;DHT22;58877;51.992;4.504;2023-12-22T06:07:57;10.20;76.21
71177;DHT22;58877;51.992;4.504;2023-12-22T06:10:23;10.24;75.84
71177;DHT22;58877;51.992;4.504;2023-12-22T06:12:48;10.24;76.04
71177;DHT22;58877;51.992;4.504;2023-12-22T06:15:14;10.20;76.11
71177;DHT22;58877;51.992;4.504;2023-12-22T06:17:39;10.29;76.29
71177;DHT22;58877;51.992;4.504;2023-12-22T06:20:06;10.21;76.24
71177;DHT22;58877;51.992;4.504;2023-12-22T06:22:31;10.32;75.72
71177;DHT22;58877;51.992;4.504;2023-12-22T06:24:58;10.32;75.93
71177;DHT22;58877;51.992;4.504;2023-12-22T06:27:28;10.33;76.11
71177;DHT22;58877;51.992;4.504;2023-12-22T06:29:54;10.40;75.97
71177;DHT22;58877;51.992;4.504;2023-12-22T06:32:21;10.39;75.94
71177;DHT22;58877;51.992;4.504;2023-12-22T06:34:46;10.37;76.15
71177;DHT22;58877;51.992;4.504;2023-12-22T06:37:12;10.34;75.83
71177;DHT22;58877;51.992;4.504;2023-12-22T06:39:38;10.33;75.61
71177;DHT22;58877;51.992;4.504;2023-12-22T06:42:04;10.43;75.53
71177;DHT22;58877;51.992;4.504;2023-12-22T06:44:32;10.39;75.55
71177;DHT22;58877;51.992;4.504;2023-12-22T06:46:57;10.41;75.71
71177;DHT22;58877;51.992;4.504;2023-12-22T06:49:23;10.49;75.43
71177;DHT22;58877;51.992;4.504;2023-12-22T06:51:49;10.41;75.63
71177;DHT22;58877;51.992;4.504;2023-12-22T06:54:14;10.39;75.63
71177;DHT22;58877;51.992;4.504;2023-12-22T06:56:43;10.32;75.68
71177;DHT22;58877;51.992;4.504;2023-12-22T06:59:11;10.41;75.72
71177;DHT22;58877;51.992;4.504;2023-12-22T07:01:37;10.36;75.83
71177;DHT22;58877;51.992;4.504;2023-12-22T07:04:04;10.33;75.90
71177;DHT22;58877;51.992;4.504;2023-12-22T07:06:33;10.34;76.28
71177;DHT22;58877;51.992;4.504;2023-12-22T07:11:48;10.30;76.74
71177;DHT22;58877;51.992;4.504;2023-12-22T07:14:14;10.39;76.87
71177;DHT22;58877;51.992;4.504;2023-12-22T07:16:41;10.32;77.29
71177;DHT22;58877;51.992;4.504;2023-12-22T07:19:10;10.27;77.49
71177;DHT22;58877;51.992;4.504;2023-12-22T07:21:42;10.24;77.54
71177;DHT22;58877;51.992;4.504;2023-12-22T07:24:07;10.32;77.72
71177;DHT22;58877;51.992;4.504;2023-12-22T07:26:35;10.29;78.23
71177;DHT22;58877;51.992;4.504;2023-12-22T07:29:09;10.20;78.74
71177;DHT22;58877;51.992;4.504;2023-12-22T07:31:35;10.27;79.02
71177;DHT22;58877;51.992;4.504;2023-12-22T07:34:00;10.29;79.46
71177;DHT22;58877;51.992;4.504;2023-12-22T07:36:26;10.14;80.09
71177;DHT22;58877;51.992;4.504;2023-12-22T07:38:51;10.19;80.51
71177;DHT22;58877;51.992;4.504;2023-12-22T07:41:17;10.10;80.96
71177;DHT22;58877;51.992;4.504;2023-12-22T07:43:45;10.17;80.94
71177;DHT22;58877;51.992;4.504;2023-12-22T07:46:18;10.26;80.95
71177;DHT22;58877;51.992;4.504;2023-12-22T07:48:44;10.29;81.12
71177;DHT22;58877;51.992;4.504;2023-12-22T07:51:11;10.16;81.89
71177;DHT22;58877;51.992;4.504;2023-12-22T07:53:42;10.16;82.26
71177;DHT22;58877;51.992;4.504;2023-12-22T07:56:08;10.16;82.30
71177;DHT22;58877;51.992;4.504;2023-12-22T07:58:36;10.20;82.53
71177;DHT22;58877;51.992;4.504;2023-12-22T08:01:02;10.12;82.84
71177;DHT22;58877;51.992;4.504;2023-12-22T08:03:28;10.17;82.86
71177;DHT22;58877;51.992;4.504;2023-12-22T08:05:54;10.27;82.76
71177;DHT22;58877;51.992;4.504;2023-12-22T08:08:21;10.23;83.62
71177;DHT22;58877;51.992;4.504;2023-12-22T08:10:47;10.14;84.06
71177;DHT22;58877;51.992;4.504;2023-12-22T08:13:13;10.20;84.17
71177;DHT22;58877;51.992;4.504;2023-12-22T08:15:39;10.27;84.25
71177;DHT22;58877;51.992;4.504;2023-12-22T08:18:05;10.30;84.27
71177;DHT22;58877;51.992;4.504;2023-12-22T08:20:31;10.17;84.48
71177;DHT22;58877;51.992;4.504;2023-12-22T08:22:57;10.24;84.66
71177;DHT22;58877;51.992;4.504;2023-12-22T08:25:22;10.24;84.65
71177;DHT22;58877;51.992;4.504;2023-12-22T08:27:48;10.27;84.72
71177;DHT22;58877;51.992;4.504;2023-12-22T08:30:14;10.34;84.48
71177;DHT22;58877;51.992;4.504;2023-12-22T08:32:43;10.50;84.30
71177;DHT22;58877;51.992;4.504;2023-12-22T08:35:12;10.51;84.92
71177;DHT22;58877;51.992;4.504;2023-12-22T08:37:37;10.33;85.85
71177;DHT22;58877;51.992;4.504;2023-12-22T08:40:04;10.29;86.53
71177;DHT22;58877;51.992;4.504;2023-12-22T08:42:31;10.23;86.61
71177;DHT22;58877;51.992;4.504;2023-12-22T08:44:57;10.21;86.38
71177;DHT22;58877;51.992;4.504;2023-12-22T08:47:23;10.30;86.12
71177;DHT22;58877;51.992;4.504;2023-12-22T08:49:48;10.33;86.08
71177;DHT22;58877;51.992;4.504;2023-12-22T08:52:14;10.37;85.71
71177;DHT22;58877;51.992;4.504;2023-12-22T08:54:39;10.43;85.29
71177;DHT22;58877;51.992;4.504;2023-12-22T08:57:05;10.44;85.07
71177;DHT22;58877;51.992;4.504;2023-12-22T08:59:30;10.49;84.89
71177;DHT22;58877;51.992;4.504;2023-12-22T09:01:56;10.54;84.89
71177;DHT22;58877;51.992;4.504;2023-12-22T09:04:21;10.60;84.74
71177;DHT22;58877;51.992;4.504;2023-12-22T09:06:51;10.64;84.70
71177;DHT22;58877;51.992;4.504;2023-12-22T09:09:17;10.63;84.50
71177;DHT22;58877;51.992;4.504;2023-12-22T09:11:43;10.70;84.36
71177;DHT22;58877;51.992;4.504;2023-12-22T09:14:10;10.71;84.00
71177;DHT22;58877;51.992;4.504;2023-12-22T09:16:38;10.80;83.86
71177;DHT22;58877;51.992;4.504;2023-12-22T09:19:04;10.81;83.38
71177;DHT22;58877;51.992;4.504;2023-12-22T09:21:30;10.78;83.21
71177;DHT22;58877;51.992;4.504;2023-12-22T09:23:55;10.91;82.82
71177;DHT22;58877;51.992;4.504;2023-12-22T09:26:21;10.82;83.16
71177;DHT22;58877;51.992;4.504;2023-12-22T09:28:47;10.88;83.14
71177;DHT22;58877;51.992;4.504;2023-12-22T09:31:13;10.90;83.35
71177;DHT22;58877;51.992;4.504;2023-12-22T09:33:39;10.90;83.44
71177;DHT22;58877;51.992;4.504;2023-12-22T09:36:06;10.92;83.55
71177;DHT22;58877;51.992;4.504;2023-12-22T09:38:31;10.92;83.45
71177;DHT22;58877;51.992;4.504;2023-12-22T09:40:58;10.91;83.53
71177;DHT22;58877;51.992;4.504;2023-12-22T09:43:24;10.92;83.74
71177;DHT22;58877;51.992;4.504;2023-12-22T09:45:51;11.04;83.48
71177;DHT22;58877;51.992;4.504;2023-12-22T09:48:18;11.00;83.46
71177;DHT22;58877;51.992;4.504;2023-12-22T09:50:46;10.94;83.55
71177;DHT22;58877;51.992;4.504;2023-12-22T09:53:15;10.98;83.22
71177;DHT22;58877;51.992;4.504;2023-12-22T09:55:45;11.01;82.60
71177;DHT22;58877;51.992;4.504;2023-12-22T09:58:14;11.01;82.49
71177;DHT22;58877;51.992;4.504;2023-12-22T10:00:42;11.00;82.03
71177;DHT22;58877;51.992;4.504;2023-12-22T10:03:10;11.08;81.91
71177;DHT22;58877;51.992;4.504;2023-12-22T10:05:37;11.18;81.76
71177;DHT22;58877;51.992;4.504;2023-12-22T10:08:04;11.21;81.57
71177;DHT22;58877;51.992;4.504;2023-12-22T10:10:32;11.18;81.62
71177;DHT22;58877;51.992;4.504;2023-12-22T10:13:01;11.18;81.40
71177;DHT22;58877;51.992;4.504;2023-12-22T10:15:30;11.34;81.21
71177;DHT22;58877;51.992;4.504;2023-12-22T10:17:57;11.22;81.26
71177;DHT22;58877;51.992;4.504;2023-12-22T10:20:22;11.18;81.44
71177;DHT22;58877;51.992;4.504;2023-12-22T10:22:48;11.22;81.10
71177;DHT22;58877;51.992;4.504;2023-12-22T10:25:15;11.40;80.76
71177;DHT22;58877;51.992;4.504;2023-12-22T10:27:45;11.39;80.46
71177;DHT22;58877;51.992;4.504;2023-12-22T10:30:10;11.36;80.17
71177;DHT22;58877;51.992;4.504;2023-12-22T10:32:42;11.36;79.99
71177;DHT22;58877;51.992;4.504;2023-12-22T10:35:08;11.36;80.18
71177;DHT22;58877;51.992;4.504;2023-12-22T10:37:34;11.38;80.20
71177;DHT22;58877;51.992;4.504;2023-12-22T10:40:04;11.45;80.02
71177;DHT22;58877;51.992;4.504;2023-12-22T10:42:29;11.45;79.93
71177;DHT22;58877;51.992;4.504;2023-12-22T10:44:56;11.42;80.13
71177;DHT22;58877;51.992;4.504;2023-12-22T10:47:22;11.40;80.27
71177;DHT22;58877;51.992;4.504;2023-12-22T10:49:49;11.40;80.02
71177;DHT22;58877;51.992;4.504;2023-12-22T10:52:18;11.46;80.13
71177;DHT22;58877;51.992;4.504;2023-12-22T10:54:45;11.45;80.00
71177;DHT22;58877;51.992;4.504;2023-12-22T10:57:11;11.51;80.13
71177;DHT22;58877;51.992;4.504;2023-12-22T10:59:45;11.43;80.33
71177;DHT22;58877;51.992;4.504;2023-12-22T11:02:17;11.46;80.55
71177;DHT22;58877;51.992;4.504;2023-12-22T11:04:57;11.45;80.82
71177;DHT22;58877;51.992;4.504;2023-12-22T11:07:28;11.48;80.76
71177;DHT22;58877;51.992;4.504;2023-12-22T11:09:56;11.46;80.82
71177;DHT22;58877;51.992;4.504;2023-12-22T11:12:27;11.51;80.47
71177;DHT22;58877;51.992;4.504;2023-12-22T11:14:54;11.40;80.54
71177;DHT22;58877;51.992;4.504;2023-12-22T11:17:27;11.43;80.57
71177;DHT22;58877;51.992;4.504;2023-12-22T11:19:54;11.52;80.39
71177;DHT22;58877;51.992;4.504;2023-12-22T11:22:21;11.59;80.19
71177;DHT22;58877;51.992;4.504;2023-12-22T11:24:49;11.48;80.32
71177;DHT22;58877;51.992;4.504;2023-12-22T11:27:19;11.46;80.45
71177;DHT22;58877;51.992;4.504;2023-12-22T11:29:50;11.51;80.42
71177;DHT22;58877;51.992;4.504;2023-12-22T11:32:17;11.52;79.74
71177;DHT22;58877;51.992;4.504;2023-12-22T11:34:44;11.43;80.00
71177;DHT22;58877;51.992;4.504;2023-12-22T11:37:16;11.45;80.24
71177;DHT22;58877;51.992;4.504;2023-12-22T11:39:42;11.45;80.33
71177;DHT22;58877;51.992;4.504;2023-12-22T11:42:22;11.36;80.40
71177;DHT22;58877;51.992;4.504;2023-12-22T11:44:49;11.51;80.18
71177;DHT22;58877;51.992;4.504;2023-12-22T11:47:14;11.49;79.83
71177;DHT22;58877;51.992;4.504;2023-12-22T11:49:41;11.43;79.73
71177;DHT22;58877;51.992;4.504;2023-12-22T11:52:17;11.52;79.49
71177;DHT22;58877;51.992;4.504;2023-12-22T11:54:47;11.55;79.47
71177;DHT22;58877;51.992;4.504;2023-12-22T11:57:34;11.55;79.07
71177;DHT22;58877;51.992;4.504;2023-12-22T12:00:07;11.52;78.73
71177;DHT22;58877;51.992;4.504;2023-12-22T12:02:37;11.48;78.78
71177;DHT22;58877;51.992;4.504;2023-12-22T12:05:07;11.54;78.40
71177;DHT22;58877;51.992;4.504;2023-12-22T12:10:10;11.54;78.63
71177;DHT22;58877;51.992;4.504;2023-12-22T12:12:36;11.52;78.50
71177;DHT22;58877;51.992;4.504;2023-12-22T12:15:17;11.56;78.59
71177;DHT22;58877;51.992;4.504;2023-12-22T12:17:43;11.59;78.62
71177;DHT22;58877;51.992;4.504;2023-12-22T12:20:10;11.51;79.02
71177;DHT22;58877;51.992;4.504;2023-12-22T12:22:38;11.52;78.93
71177;DHT22;58877;51.992;4.504;2023-12-22T12:25:10;11.56;79.24
71177;DHT22;58877;51.992;4.504;2023-12-22T12:27:37;11.54;79.10
71177;DHT22;58877;51.992;4.504;2023-12-22T12:30:10;11.45;79.33
71177;DHT22;58877;51.992;4.504;2023-12-22T12:32:36;11.48;79.70
71177;DHT22;58877;51.992;4.504;2023-12-22T12:35:02;11.40;79.82
71177;DHT22;58877;51.992;4.504;2023-12-22T12:37:29;11.56;79.75
71177;DHT22;58877;51.992;4.504;2023-12-22T12:39:58;11.55;79.76
71177;DHT22;58877;51.992;4.504;2023-12-22T12:42:29;11.45;80.13
71177;DHT22;58877;51.992;4.504;2023-12-22T12:44:58;11.55;79.98
71177;DHT22;58877;51.992;4.504;2023-12-22T12:47:25;11.61;79.99
71177;DHT22;58877;51.992;4.504;2023-12-22T12:49:58;11.45;80.01
71177;DHT22;58877;51.992;4.504;2023-12-22T12:52:25;11.56;80.09
71177;DHT22;58877;51.992;4.504;2023-12-22T12:54:51;11.56;80.28
71177;DHT22;58877;51.992;4.504;2023-12-22T12:57:18;11.48;80.64
71177;DHT22;58877;51.992;4.504;2023-12-22T12:59:48;11.48;80.56
71177;DHT22;58877;51.992;4.504;2023-12-22T13:02:18;11.52;80.41
71177;DHT22;58877;51.992;4.504;2023-12-22T13:04:46;11.56;80.50
71177;DHT22;58877;51.992;4.504;2023-12-22T13:07:11;11.46;80.74
71177;DHT22;58877;51.992;4.504;2023-12-22T13:09:40;11.43;80.79
71177;DHT22;58877;51.992;4.504;2023-12-22T13:12:10;11.49;81.06
71177;DHT22;58877;51.992;4.504;2023-12-22T13:14:36;11.48;81.08
71177;DHT22;58877;51.992;4.504;2023-12-22T13:17:02;11.49;80.86
71177;DHT22;58877;51.992;4.504;2023-12-22T13:19:28;11.49;80.99
71177;DHT22;58877;51.992;4.504;2023-12-22T13:21:54;11.49;80.74
71177;DHT22;58877;51.992;4.504;2023-12-22T13:24:20;11.42;80.85
71177;DHT22;58877;51.992;4.504;2023-12-22T13:26:46;11.48;80.40
71177;DHT22;58877;51.992;4.504;2023-12-22T13:29:13;11.52;80.22
71177;DHT22;58877;51.992;4.504;2023-12-22T13:31:41;11.52;80.03
71177;DHT22;58877;51.992;4.504;2023-12-22T13:34:11;11.55;79.92
71177;DHT22;58877;51.992;4.504;2023-12-22T13:36:38;11.49;79.71
71177;DHT22;58877;51.992;4.504;2023-12-22T13:39:08;11.63;79.60
71177;DHT22;58877;51.992;4.504;2023-12-22T13:41:38;11.58;79.54
71177;DHT22;58877;51.992;4.504;2023-12-22T13:44:06;11.49;79.43
71177;DHT22;58877;51.992;4.504;2023-12-22T13:46:33;11.54;79.80
71177;DHT22;58877;51.992;4.504;2023-12-22T13:49:02;11.49;79.93
71177;DHT22;58877;51.992;4.504;2023-12-22T13:51:38;11.54;79.68
71177;DHT22;58877;51.992;4.504;2023-12-22T13:54:04;11.54;79.75
71177;DHT22;58877;51.992;4.504;2023-12-22T13:56:34;11.63;79.53
71177;DHT22;58877;51.992;4.504;2023-12-22T13:59:01;11.66;79.28
71177;DHT22;58877;51.992;4.504;2023-12-22T14:01:27;11.59;79.28
71177;DHT22;58877;51.992;4.504;2023-12-22T14:03:53;11.58;79.20
71177;DHT22;58877;51.992;4.504;2023-12-22T14:06:26;11.56;79.40
71177;DHT22;58877;51.992;4.504;2023-12-22T14:08:53;11.62;79.49
71177;DHT22;58877;51.992;4.504;2023-12-22T14:11:19;11.62;79.35
71177;DHT22;58877;51.992;4.504;2023-12-22T14:13:49;11.61;79.80
71177;DHT22;58877;51.992;4.504;2023-12-22T14:16:15;11.52;80.11
71177;DHT22;58877;51.992;4.504;2023-12-22T14:18:42;11.56;80.17
71177;DHT22;58877;51.992;4.504;2023-12-22T14:21:10;11.46;80.36
71177;DHT22;58877;51.992;4.504;2023-12-22T14:23:36;11.49;80.32
71177;DHT22;58877;51.992;4.504;2023-12-22T14:26:02;11.51;79.85
71177;DHT22;58877;51.992;4.504;2023-12-22T14:28:29;11.55;79.79
71177;DHT22;58877;51.992;4.504;2023-12-22T14:30:56;11.51;79.52
71177;DHT22;58877;51.992;4.504;2023-12-22T14:33:25;11.56;79.37
71177;DHT22;58877;51.992;4.504;2023-12-22T14:35:51;11.51;79.06
71177;DHT22;58877;51.992;4.504;2023-12-22T14:38:17;11.61;78.83
71177;DHT22;58877;51.992;4.504;2023-12-22T14:40:43;11.66;78.48
71177;DHT22;58877;51.992;4.504;2023-12-22T14:43:14;11.66;78.56
71177;DHT22;58877;51.992;4.504;2023-12-22T14:45:43;11.69;78.44
71177;DHT22;58877;51.992;4.504;2023-12-22T14:48:12;11.70;78.12
71177;DHT22;58877;51.992;4.504;2023-12-22T14:50:38;11.67;78.17
71177;DHT22;58877;51.992;4.504;2023-12-22T14:53:12;11.58;78.35
71177;DHT22;58877;51.992;4.504;2023-12-22T14:55:38;11.62;78.30
71177;DHT22;58877;51.992;4.504;2023-12-22T14:58:04;11.59;78.33
71177;DHT22;58877;51.992;4.504;2023-12-22T15:00:32;11.59;78.31
71177;DHT22;58877;51.992;4.504;2023-12-22T15:02:58;11.58;78.32
71177;DHT22;58877;51.992;4.504;2023-12-22T15:05:28;11.65;78.18
71177;DHT22;58877;51.992;4.504;2023-12-22T15:07:55;11.59;78.29
71177;DHT22;58877;51.992;4.504;2023-12-22T15:10:25;11.63;78.32
71177;DHT22;58877;51.992;4.504;2023-12-22T15:12:51;11.61;78.24
71177;DHT22;58877;51.992;4.504;2023-12-22T15:15:16;11.65;78.33
71177;DHT22;58877;51.992;4.504;2023-12-22T15:17:42;11.58;78.51
71177;DHT22;58877;51.992;4.504;2023-12-22T15:20:09;11.56;78.52
71177;DHT22;58877;51.992;4.504;2023-12-22T15:22:36;11.62;78.53
71177;DHT22;58877;51.992;4.504;2023-12-22T15:25:02;11.61;78.74
71177;DHT22;58877;51.992;4.504;2023-12-22T15:27:30;11.55;78.85
71177;DHT22;58877;51.992;4.504;2023-12-22T15:30:10;11.59;79.06
71177;DHT22;58877;51.992;4.504;2023-12-22T15:32:36;11.49;79.03
71177;DHT22;58877;51.992;4.504;2023-12-22T15:35:02;11.48;79.08
71177;DHT22;58877;51.992;4.504;2023-12-22T15:37:29;11.59;78.99
71177;DHT22;58877;51.992;4.504;2023-12-22T15:39:55;11.51;79.22
71177;DHT22;58877;51.992;4.504;2023-12-22T15:42:20;11.54;79.47
71177;DHT22;58877;51.992;4.504;2023-12-22T15:44:46;11.48;79.22